Time;durP1;ratioP1;P1;durP2;ratioP2;P2;SDS_P1;SDS_P2;PMS_P1;PMS_P2;Temp;Humidity;BMP_temperature;BMP_pressure;BME280_temperature;BME280_humidity;BME280_pressure;Samples;Min_cycle;Max_cycle;Signal;HPM_P1;HPM_P2
2022/05/16 00:00:26;;;;;;;10.20;9.70;;;;;;;12.99;81.49;93176.00;5029939;28;20226;-75
2022/05/16 00:02:53;;;;;;;9.63;8.77;;;;;;;12.96;81.86;93200.91;5030400;28;20222;-75
2022/05/16 00:05:19;;;;;;;10.30;9.70;;;;;;;12.85;81.88;93180.34;5029149;28;20234;-75
2022/05/16 00:07:44;;;;;;;10.93;10.23;;;;;;;13.01;81.47;93194.13;5030159;28;20206;-75
2022/05/16 00:10:10;;;;;;;11.07;10.30;;;;;;;12.94;82.04;93192.56;5029834;28;20187;-75
2022/05/16 00:12:37;;;;;;;11.27;10.57;;;;;;;12.96;81.60;93194.91;5029045;28;20551;-74
2022/05/16 00:15:05;;;;;;;11.63;11.00;;;;;;;12.90;81.46;93169.81;5028062;28;20243;-74
2022/05/16 00:17:30;;;;;;;11.13;10.37;;;;;;;12.94;82.65;93183.91;5029490;28;20179;-75
2022/05/16 00:19:56;;;;;;;11.87;11.00;;;;;;;13.02;82.36;93188.59;5028933;28;20207;-75
2022/05/16 00:22:24;;;;;;;11.30;10.60;;;;;;;13.02;82.61;93188.59;5029869;28;20225;-74
2022/05/16 00:24:49;;;;;;;11.03;10.43;;;;;;;12.89;83.22;93184.75;5029780;28;20183;-74
2022/05/16 00:27:15;;;;;;;11.40;10.80;;;;;;;12.97;82.61;93178.13;5028454;28;20276;-75
2022/05/16 00:29:40;;;;;;;10.60;10.00;;;;;;;13.07;82.09;93185.91;5028621;28;20183;-74
2022/05/16 00:32:06;;;;;;;11.07;10.47;;;;;;;13.04;82.03;93180.44;5028279;28;20229;-74
2022/05/16 00:34:32;;;;;;;12.43;11.63;;;;;;;12.80;82.33;93188.25;5028268;28;20195;-74
2022/05/16 00:36:57;;;;;;;11.07;10.37;;;;;;;12.75;83.06;93183.06;5028767;28;20235;-75
2022/05/16 00:39:23;;;;;;;11.27;10.57;;;;;;;12.80;82.81;93185.63;5028976;28;20230;-75
2022/05/16 00:41:50;;;;;;;9.93;9.30;;;;;;;12.86;82.74;93180.06;5028999;28;20234;-75
2022/05/16 00:44:17;;;;;;;10.53;9.90;;;;;;;12.77;82.67;93175.72;5011562;28;20234;-74
2022/05/16 00:46:42;;;;;;;11.93;11.13;;;;;;;12.63;83.38;93180.03;5029497;28;20234;-74
2022/05/16 00:49:11;;;;;;;12.07;10.93;;;;;;;12.64;83.24;93181.59;5028934;28;20776;-75
2022/05/16 00:52:00;;;;;;;10.80;10.10;;;;;;;12.59;83.79;93177.19;5028803;28;20227;-74
2022/05/16 00:54:34;;;;;;;11.40;10.63;;;;;;;12.44;83.79;93177.34;5028646;28;20206;-74
2022/05/16 00:57:04;;;;;;;11.67;10.93;;;;;;;12.49;84.05;93168.66;5027591;28;20275;-74
2022/05/16 00:59:51;;;;;;;11.50;10.80;;;;;;;12.58;83.96;93177.47;5029145;28;20198;-74
2022/05/16 01:05:04;;;;;;;10.57;9.97;;;;;;;12.47;84.51;93186.47;5028680;28;20206;-74
2022/05/16 01:07:32;;;;;;;11.17;10.33;;;;;;;12.49;84.27;93184.38;5028786;28;20207;-74
2022/05/16 01:09:58;;;;;;;11.27;10.50;;;;;;;12.50;84.42;93178.84;5028559;28;20203;-74
2022/05/16 01:12:30;;;;;;;11.03;10.43;;;;;;;12.49;84.69;93179.13;5028133;28;20189;-75
2022/05/16 01:14:58;;;;;;;11.70;10.93;;;;;;;12.44;84.36;93173.94;5028398;28;20233;-75
2022/05/16 01:17:24;;;;;;;10.60;10.03;;;;;;;12.49;84.45;93176.50;5029116;28;20201;-74
2022/05/16 01:19:50;;;;;;;12.30;11.27;;;;;;;12.34;85.09;93180.03;5028167;28;20191;-75
2022/05/16 01:22:32;;;;;;;11.73;10.77;;;;;;;12.28;85.33;93175.91;5027611;28;20222;-75
2022/05/16 01:25:05;;;;;;;11.67;10.87;;;;;;;12.31;85.41;93169.34;5026472;28;20199;-75
2022/05/16 01:27:55;;;;;;;12.17;11.37;;;;;;;12.25;85.68;93162.59;5028838;28;20187;-74
2022/05/16 01:30:24;;;;;;;11.33;10.53;;;;;;;12.14;85.82;93153.25;5028334;28;20230;-74
2022/05/16 01:32:50;;;;;;;10.83;10.23;;;;;;;12.21;85.60;93172.03;5028988;28;20242;-74
2022/05/16 01:35:25;;;;;;;13.40;11.73;;;;;;;12.23;86.05;93169.94;5027497;28;20230;-74
2022/05/16 01:40:36;;;;;;;11.60;10.80;;;;;;;12.16;85.56;93158.97;5027679;28;20236;-74
2022/05/16 01:43:03;;;;;;;11.17;10.57;;;;;;;12.33;85.07;93175.06;5028135;28;20179;-74
2022/05/16 01:45:29;;;;;;;12.60;11.50;;;;;;;12.34;84.68;93174.03;5011465;28;20273;-75
2022/05/16 01:47:54;;;;;;;11.70;10.90;;;;;;;12.18;84.73;93167.34;5030813;28;20201;-75
2022/05/16 01:50:20;;;;;;;10.30;9.80;;;;;;;12.24;84.61;93177.50;5032114;28;20233;-74
2022/05/16 01:52:46;;;;;;;10.77;10.03;;;;;;;12.22;84.67;93178.81;5032167;28;20223;-75
2022/05/16 01:55:11;;;;;;;10.10;9.50;;;;;;;12.24;84.30;93174.91;5014953;28;20238;-75
2022/05/16 01:57:40;;;;;;;10.97;10.27;;;;;;;12.17;84.90;93171.03;5032738;28;20198;-74
2022/05/16 02:00:09;;;;;;;10.80;10.30;;;;;;;12.25;84.70;93175.69;5031614;28;20196;-74
2022/05/16 02:02:36;;;;;;;10.63;10.13;;;;;;;12.32;84.57;93181.38;5031972;28;20278;-75
2022/05/16 02:05:02;;;;;;;11.60;10.90;;;;;;;12.33;84.35;93182.94;5032272;28;20205;-75
2022/05/16 02:07:27;;;;;;;10.53;9.80;;;;;;;12.19;84.34;93182.00;5031817;28;20178;-74
2022/05/16 02:09:53;;;;;;;11.37;10.67;;;;;;;12.06;84.21;93187.88;5032170;28;21042;-74
2022/05/16 02:12:19;;;;;;;12.00;11.10;;;;;;;11.78;84.90;93183.34;5031695;28;20719;-74
2022/05/16 02:14:45;;;;;;;10.33;9.83;;;;;;;12.00;84.72;93191.56;5014500;28;20199;-75
2022/05/16 02:17:10;;;;;;;10.37;9.57;;;;;;;12.06;84.82;93188.63;5031735;28;20631;-75
2022/05/16 02:19:36;;;;;;;10.63;9.93;;;;;;;12.09;84.62;93187.31;5030609;28;20199;-74
2022/05/16 02:24:45;;;;;;;10.33;9.70;;;;;;;12.21;84.59;93183.28;5031753;28;20225;-75
2022/05/16 02:27:16;;;;;;;10.20;9.67;;;;;;;12.05;84.67;93183.66;5031609;28;20298;-75
2022/05/16 02:29:42;;;;;;;11.03;10.33;;;;;;;11.98;84.92;93177.97;5031583;28;20251;-75
2022/05/16 02:32:08;;;;;;;11.10;10.30;;;;;;;11.98;84.93;93183.22;5030815;28;20222;-74
2022/05/16 02:34:34;;;;;;;10.53;9.93;;;;;;;11.84;85.35;93182.25;5031014;28;20196;-75
2022/05/16 02:36:59;;;;;;;11.83;11.03;;;;;;;11.83;85.14;93178.84;5031280;28;20257;-74
2022/05/16 02:39:26;;;;;;;11.93;11.17;;;;;;;11.85;85.56;93181.19;5031561;28;20231;-74
2022/05/16 02:41:51;;;;;;;11.07;10.17;;;;;;;11.86;85.69;93175.69;5031025;28;20227;-83
2022/05/16 02:44:17;;;;;;;10.50;9.87;;;;;;;11.74;86.89;93177.06;5047306;28;20266;-85
2022/05/16 02:46:43;;;;;;;10.43;9.83;;;;;;;11.72;87.65;93173.97;5030987;28;20226;-86
2022/05/16 02:49:08;;;;;;;11.07;10.47;;;;;;;11.65;86.93;93153.34;5014215;28;20258;-85
2022/05/16 02:51:34;;;;;;;11.00;10.13;;;;;;;11.76;86.59;93165.31;5030626;28;20235;-85
2022/05/16 02:54:00;;;;;;;10.30;9.50;;;;;;;11.88;86.70;93173.59;5030255;28;20195;-85
2022/05/16 02:56:26;;;;;;;12.87;10.77;;;;;;;11.88;86.50;93172.78;5030115;28;20256;-84
2022/05/16 02:58:51;;;;;;;10.93;10.23;;;;;;;11.88;85.42;93175.41;5028804;28;20194;-84
2022/05/16 03:01:17;;;;;;;10.70;10.10;;;;;;;11.77;85.89;93182.56;5028890;28;20220;-84
2022/05/16 03:03:42;;;;;;;11.20;10.37;;;;;;;11.83;85.73;93178.09;5030162;28;20184;-85
2022/05/16 03:06:08;;;;;;;12.33;11.43;;;;;;;11.84;86.06;93177.03;5029308;28;20226;-85
2022/05/16 03:08:37;;;;;;;11.37;10.67;;;;;;;11.88;85.88;93183.25;5029121;28;20190;-84
2022/05/16 03:11:03;;;;;;;11.67;10.97;;;;;;;11.87;85.71;93179.88;5029257;28;20246;-84
2022/05/16 03:13:29;;;;;;;10.77;10.10;;;;;;;12.03;85.27;93183.94;5030606;28;20193;-85
2022/05/16 03:15:55;;;;;;;10.20;9.63;;;;;;;12.42;83.22;93183.91;5030602;28;20330;-80
2022/05/16 03:18:23;;;;;;;10.27;9.63;;;;;;;12.86;80.50;93184.53;5030522;28;20198;-84
2022/05/16 03:20:50;;;;;;;11.93;11.23;;;;;;;13.39;78.01;93172.94;5029545;28;20298;-85
2022/05/16 03:23:15;;;;;;;11.13;10.53;;;;;;;13.53;76.33;93171.19;5030334;28;21054;-85
2022/05/16 03:25:41;;;;;;;11.47;10.77;;;;;;;14.30;73.15;93181.13;5029131;28;20281;-85
2022/05/16 03:28:06;;;;;;;10.00;9.50;;;;;;;14.39;71.92;93166.28;5045562;28;20257;-82
2022/05/16 03:30:32;;;;;;;10.63;10.00;;;;;;;14.30;72.78;93173.22;5029773;28;20222;-84
2022/05/16 03:32:57;;;;;;;9.53;9.03;;;;;;;14.95;70.64;93173.19;5045218;28;20190;-84
2022/05/16 03:35:24;;;;;;;10.83;10.13;;;;;;;14.51;71.77;93181.56;5029391;28;20227;-84
2022/05/16 03:37:49;;;;;;;9.57;9.07;;;;;;;13.76;75.01;93183.47;5030168;28;20199;-85
2022/05/16 03:42:59;;;;;;;10.40;9.70;;;;;;;14.14;74.57;93195.53;5029366;28;20278;-85
2022/05/16 03:45:24;;;;;;;10.87;10.17;;;;;;;14.57;71.96;93213.81;5029713;28;20314;-84
2022/05/16 03:47:50;;;;;;;9.97;9.17;;;;;;;14.88;71.65;93206.97;5030051;28;20206;-74
2022/05/16 03:50:16;;;;;;;11.37;10.57;;;;;;;14.69;72.29;93224.66;5029793;28;20282;-74
2022/05/16 03:52:41;;;;;;;10.63;9.83;;;;;;;14.38;73.38;93216.47;5030053;28;20175;-74
2022/05/16 03:55:12;;;;;;;12.17;11.27;;;;;;;14.29;73.61;93223.44;5027685;28;20683;-74
2022/05/16 03:57:38;;;;;;;10.40;9.60;;;;;;;14.30;73.80;93223.16;5026837;28;20254;-74
2022/05/16 04:00:05;;;;;;;11.73;10.73;;;;;;;14.66;73.59;93238.38;5029082;28;20191;-76
2022/05/16 04:02:30;;;;;;;11.10;10.37;;;;;;;14.94;72.22;93230.25;5029112;28;20206;-74
2022/05/16 04:04:56;;;;;;;10.67;9.97;;;;;;;14.55;73.63;93226.47;5029062;28;20191;-78
2022/05/16 04:07:21;;;;;;;11.00;10.27;;;;;;;14.30;75.33;93231.03;5028842;28;20400;-77
2022/05/16 04:09:48;;;;;;;12.53;11.73;;;;;;;14.22;75.53;93234.28;5028546;28;20266;-80
2022/05/16 04:12:13;;;;;;;13.33;12.13;;;;;;;14.10;76.84;93231.28;5027804;28;20214;-78
2022/05/16 04:14:39;;;;;;;12.63;11.60;;;;;;;14.11;76.39;93211.88;5029119;28;20199;-79
2022/05/16 04:17:04;;;;;;;13.00;11.90;;;;;;;14.25;76.49;93230.34;5028503;28;20221;-75
2022/05/16 04:19:29;;;;;;;13.77;12.77;;;;;;;14.18;77.27;93228.03;5029522;28;20198;-74
2022/05/16 04:21:55;;;;;;;13.90;12.90;;;;;;;14.34;76.70;93228.63;5027562;28;20242;-76
2022/05/16 04:24:20;;;;;;;14.20;13.00;;;;;;;14.36;77.65;93239.63;5029318;28;20229;-74
2022/05/16 04:26:46;;;;;;;13.63;12.67;;;;;;;14.74;76.39;93241.09;5029166;28;20217;-75
2022/05/16 04:29:12;;;;;;;13.43;12.33;;;;;;;14.93;75.93;93249.72;5029815;28;20191;-75
2022/05/16 04:31:37;;;;;;;15.40;13.97;;;;;;;14.64;77.69;93236.03;5029140;28;20265;-75
2022/05/16 04:34:09;;;;;;;13.73;12.70;;;;;;;14.91;76.41;93243.22;5028224;28;20186;-75
2022/05/16 04:36:35;;;;;;;19.07;15.40;;;;;;;14.74;77.88;93248.22;5027656;28;20237;-75
2022/05/16 04:39:00;;;;;;;17.07;15.37;;;;;;;14.95;77.33;93255.50;5011308;28;20238;-72
2022/05/16 04:44:10;;;;;;;16.83;15.37;;;;;;;15.01;77.42;93256.97;5027707;28;20201;-74
2022/05/16 04:46:35;;;;;;;15.77;14.27;;;;;;;15.18;76.75;93256.41;5026361;28;20226;-74
2022/05/16 04:49:01;;;;;;;15.50;14.30;;;;;;;15.40;75.71;93256.56;5028902;28;20199;-74
2022/05/16 04:51:26;;;;;;;17.17;15.40;;;;;;;15.30;76.58;93249.59;5042339;28;20218;-76
2022/05/16 04:53:52;;;;;;;19.03;16.53;;;;;;;15.72;75.01;93261.75;5028689;28;20485;-71
2022/05/16 04:56:17;;;;;;;16.73;15.30;;;;;;;15.70;74.38;93264.63;5027416;28;20219;-72
2022/05/16 04:58:42;;;;;;;16.33;14.97;;;;;;;15.51;75.71;93263.19;5029250;28;20194;-72
2022/05/16 05:01:08;;;;;;;16.60;15.27;;;;;;;16.23;72.71;93250.91;5028701;28;20234;-72
2022/05/16 05:03:34;;;;;;;16.73;15.30;;;;;;;15.99;73.71;93272.22;5029162;28;20245;-72
2022/05/16 05:05:59;;;;;;;18.07;16.23;;;;;;;15.92;73.84;93271.84;5026617;28;20241;-72
2022/05/16 05:08:25;;;;;;;16.77;15.17;;;;;;;15.79;74.66;93283.16;5028098;28;20684;-72
2022/05/16 05:16:22;;;;;;;18.23;16.63;;;;;;;16.12;73.29;93279.34;5027917;28;20306;-71
2022/05/16 05:18:48;;;;;;;16.17;14.73;;;;;;;16.27;72.54;93284.28;5026098;28;20186;-72
2022/05/16 05:21:13;;;;;;;17.30;15.60;;;;;;;16.95;69.41;93278.81;5028655;28;20215;-72
2022/05/16 05:23:40;;;;;;;17.07;15.63;;;;;;;16.93;68.86;93297.56;5030387;28;20206;-72
2022/05/16 05:26:07;;;;;;;17.33;15.73;;;;;;;16.65;70.77;93293.50;5031177;28;20217;-72
2022/05/16 05:28:33;;;;;;;16.07;14.77;;;;;;;17.49;67.72;93297.75;5031567;28;20202;-72
2022/05/16 05:31:00;;;;;;;16.77;15.27;;;;;;;17.77;66.50;93306.28;5031519;28;20230;-72
2022/05/16 05:33:26;;;;;;;16.50;15.00;;;;;;;17.32;68.13;93304.78;5032906;28;20250;-72
2022/05/16 05:35:51;;;;;;;17.07;15.27;;;;;;;18.44;64.05;93296.22;5032234;28;20234;-72
2022/05/16 05:38:18;;;;;;;15.57;14.27;;;;;;;19.72;59.94;93312.75;5032520;28;20216;-72
2022/05/16 05:40:44;;;;;;;17.67;14.60;;;;;;;21.71;52.76;93317.97;5014559;28;20231;-72
2022/05/16 05:43:10;;;;;;;16.57;15.07;;;;;;;22.67;50.00;93318.03;5033009;28;20691;-72
2022/05/16 05:45:36;;;;;;;13.10;12.03;;;;;;;26.29;40.84;93326.56;5032647;28;20255;-72
2022/05/16 05:48:03;;;;;;;14.23;12.85;;;;;;;27.64;38.02;93323.50;5031809;28;20201;-73
2022/05/16 05:50:28;;;;;;;12.75;11.75;;;;;;;31.02;30.98;93328.72;5032362;28;20241;-72
2022/05/16 05:52:54;;;;;;;12.07;11.13;;;;;;;30.96;30.20;93341.03;5030868;28;20181;-73
2022/05/16 05:55:20;;;;;;;11.52;10.70;;;;;;;32.65;27.49;93336.50;5031560;28;20234;-72
2022/05/16 05:57:46;;;;;;;11.77;10.75;;;;;;;32.57;27.36;93345.03;5031117;28;20222;-72
2022/05/16 06:00:13;;;;;;;11.27;10.48;;;;;;;31.00;29.26;93336.41;5031734;28;20237;-73
2022/05/16 06:02:40;;;;;;;12.45;11.48;;;;;;;33.51;26.05;93334.53;5030898;28;20215;-72
2022/05/16 06:05:11;;;;;;;12.57;11.43;;;;;;;35.03;23.44;93345.63;5031635;28;20199;-72
2022/05/16 06:07:37;;;;;;;11.90;10.73;;;;;;;31.28;28.52;93330.97;5032032;28;20190;-73
2022/05/16 06:10:04;;;;;;;10.77;9.95;;;;;;;33.05;26.18;93343.13;5031515;28;20187;-72
2022/05/16 06:12:30;;;;;;;11.20;10.40;;;;;;;30.90;27.46;93329.09;5031944;28;20197;-72
2022/05/16 06:14:56;;;;;;;9.90;9.30;;;;;;;29.03;31.32;93318.97;5030712;28;20191;-73
2022/05/16 06:17:21;;;;;;;11.43;10.20;;;;;;;33.46;25.32;93334.97;5032223;28;20206;-73
2022/05/16 06:19:47;;;;;;;12.00;10.98;;;;;;;31.67;28.72;93334.34;5031016;28;20183;-72
2022/05/16 06:22:13;;;;;;;11.70;10.75;;;;;;;32.60;26.88;93336.91;5013705;28;20222;-72
2022/05/16 06:27:22;;;;;;;12.55;11.25;;;;;;;33.39;25.65;93330.41;5011312;28;20226;-73
2022/05/16 06:29:48;;;;;;;10.90;10.10;;;;;;;33.57;25.31;93330.22;5012433;28;20447;-73
2022/05/16 06:32:13;;;;;;;12.40;11.50;;;;;;;30.96;28.28;93341.03;5010610;28;20215;-73
2022/05/16 06:34:38;;;;;;;12.27;11.10;;;;;;;25.28;37.36;93318.16;5012123;28;20206;-72
2022/05/16 06:37:04;;;;;;;12.50;11.60;;;;;;;23.69;42.61;93312.91;5011433;28;20225;-73
2022/05/16 06:39:29;;;;;;;12.55;11.55;;;;;;;23.60;43.69;93307.75;5011632;28;20255;-72
2022/05/16 06:41:55;;;;;;;13.18;12.07;;;;;;;22.43;45.70;93320.69;5028369;28;20231;-73
2022/05/16 06:44:21;;;;;;;13.52;12.43;;;;;;;21.21;49.78;93320.03;5031444;28;20198;-73
2022/05/16 06:46:46;;;;;;;12.45;11.55;;;;;;;20.51;53.53;93312.88;5031381;28;20237;-72
2022/05/16 06:49:12;;;;;;;14.77;13.38;;;;;;;19.85;54.85;93311.78;5031432;28;20182;-72
2022/05/16 06:51:37;;;;;;;14.63;13.32;;;;;;;19.73;55.75;93309.03;5030656;28;20233;-71
2022/05/16 06:54:04;;;;;;;14.15;12.70;;;;;;;19.63;56.08;93314.66;5031513;28;20178;-75
2022/05/16 06:56:29;;;;;;;13.23;12.02;;;;;;;19.56;54.83;93298.50;5030715;28;20277;-76
2022/05/16 06:58:55;;;;;;;14.13;13.07;;;;;;;19.78;55.03;93289.53;5031688;28;20300;-78
2022/05/16 07:01:20;;;;;;;13.80;12.63;;;;;;;19.89;53.40;93288.84;5029543;28;20252;-79
2022/05/16 07:03:46;;;;;;;14.37;13.13;;;;;;;19.86;54.08;93317.88;5031327;28;20190;-74
2022/05/16 07:06:14;;;;;;;13.90;12.80;;;;;;;19.71;55.23;93311.22;5030509;28;20232;-77
2022/05/16 07:08:40;;;;;;;13.60;12.60;;;;;;;19.79;56.06;93320.22;5031213;28;20211;-74
2022/05/16 07:11:06;;;;;;;13.87;12.83;;;;;;;20.08;53.17;93310.44;5030178;28;20229;-77
2022/05/16 07:13:31;;;;;;;14.93;13.73;;;;;;;20.18;53.50;93304.81;5031033;28;20185;-79
2022/05/16 07:15:57;;;;;;;14.33;13.00;;;;;;;19.99;54.58;93309.69;5030492;28;20621;-76
2022/05/16 07:18:23;;;;;;;13.75;12.45;;;;;;;20.20;53.67;93312.44;5030469;28;20193;-77
2022/05/16 07:20:49;;;;;;;14.03;12.80;;;;;;;19.95;52.45;93300.06;5030026;28;20344;-76
2022/05/16 07:23:15;;;;;;;13.77;12.67;;;;;;;20.05;52.49;93303.13;5031110;28;20213;-76
2022/05/16 07:28:25;;;;;;;13.77;12.57;;;;;;;19.61;54.20;93305.47;5029887;28;20211;-76
2022/05/16 07:30:51;;;;;;;13.20;12.10;;;;;;;19.93;55.18;93291.63;5029580;28;20236;-75
2022/05/16 07:33:18;;;;;;;13.67;12.57;;;;;;;20.36;51.78;93306.25;5030276;28;20220;-75
2022/05/16 07:35:44;;;;;;;14.30;12.97;;;;;;;20.57;51.20;93312.38;5029772;28;20239;-75
2022/05/16 07:38:09;;;;;;;13.67;12.47;;;;;;;20.35;52.44;93303.91;5030535;28;20248;-75
2022/05/16 07:40:37;;;;;;;12.90;11.97;;;;;;;20.60;51.02;93309.06;5030402;28;20271;-75
2022/05/16 07:43:04;;;;;;;14.03;12.73;;;;;;;20.34;53.29;93313.75;5027195;28;20217;-76
2022/05/16 07:45:29;;;;;;;15.70;13.30;;;;;;;20.09;54.13;93296.09;5010715;28;20233;-76
2022/05/16 07:47:56;;;;;;;13.97;12.63;;;;;;;20.30;53.75;93306.75;5029554;28;20213;-76
2022/05/16 07:50:24;;;;;;;14.87;13.50;;;;;;;20.60;50.88;93308.28;5028983;28;20229;-75
2022/05/16 07:52:50;;;;;;;13.95;12.82;;;;;;;20.65;50.28;93308.88;5029244;28;20224;-77
2022/05/16 07:55:19;;;;;;;14.73;13.43;;;;;;;20.13;53.28;93307.63;5027864;28;20227;-75
2022/05/16 07:57:45;;;;;;;13.63;12.43;;;;;;;20.08;52.50;93307.78;5027230;28;20193;-76
2022/05/16 08:00:11;;;;;;;15.57;13.90;;;;;;;20.28;52.82;93307.06;5027841;28;20219;-75
2022/05/16 08:02:39;;;;;;;15.35;13.90;;;;;;;20.04;51.62;93304.22;5027517;28;20738;-76
2022/05/16 08:05:06;;;;;;;13.03;12.13;;;;;;;20.33;52.83;93306.91;5028062;28;20276;-76
2022/05/16 08:07:31;;;;;;;13.20;12.10;;;;;;;20.69;50.60;93303.69;5028941;28;20181;-76
2022/05/16 08:12:41;;;;;;;12.97;12.00;;;;;;;20.59;51.02;93288.94;5028505;28;20249;-76
2022/05/16 08:15:07;;;;;;;12.90;11.90;;;;;;;20.99;46.13;93307.88;5028132;28;20197;-77
2022/05/16 08:17:33;;;;;;;10.97;10.27;;;;;;;20.66;45.92;93301.69;5029295;28;20178;-76
2022/05/16 08:19:58;;;;;;;12.23;11.23;;;;;;;20.69;47.93;93304.47;5026889;28;20224;-76
2022/05/16 08:22:29;;;;;;;11.57;10.77;;;;;;;20.34;46.73;93297.81;5027970;28;20277;-76
2022/05/16 08:24:55;;;;;;;10.68;9.88;;;;;;;20.80;47.14;93298.75;5028473;28;20225;-75
2022/05/16 08:27:21;;;;;;;10.45;9.80;;;;;;;20.78;45.26;93287.72;5027368;28;20194;-76
2022/05/16 08:29:46;;;;;;;11.57;10.40;;;;;;;21.28;45.23;93299.00;5028022;28;20190;-76
2022/05/16 08:32:16;;;;;;;11.43;10.52;;;;;;;20.83;44.55;93298.13;5027741;28;20340;-76
2022/05/16 08:34:42;;;;;;;8.90;8.20;;;;;;;21.00;43.38;93282.06;5028176;28;20196;-77
2022/05/16 08:39:53;;;;;;;11.15;9.18;;;;;;;20.73;42.11;93289.44;5027926;28;20240;-76
2022/05/16 08:42:38;;;;;;;9.63;9.02;;;;;;;21.08;41.43;93263.44;5010682;28;20228;-77
2022/05/16 08:45:28;;;;;;;9.85;9.25;;;;;;;21.48;40.98;93301.63;5022480;28;20222;-76
2022/05/16 08:48:04;;;;;;;9.40;8.70;;;;;;;21.43;37.09;93285.88;5026388;28;20258;-76
2022/05/16 08:50:48;;;;;;;9.35;8.75;;;;;;;21.54;39.91;93296.88;5027004;28;20340;-76
2022/05/16 08:53:18;;;;;;;8.82;8.23;;;;;;;21.65;39.91;93296.13;5026425;28;20250;-77
2022/05/16 08:55:48;;;;;;;9.38;8.73;;;;;;;21.44;38.53;93284.78;5024379;28;20401;-75
2022/05/16 08:58:34;;;;;;;8.60;8.13;;;;;;;21.74;39.25;93293.38;5028181;28;20180;-76
2022/05/16 09:01:06;;;;;;;8.95;8.35;;;;;;;21.97;37.01;93283.91;5025547;28;20246;-76
2022/05/16 09:03:50;;;;;;;8.25;7.70;;;;;;;21.82;35.92;93239.38;5027595;28;20184;-86
2022/05/16 09:06:24;;;;;;;9.55;8.95;;;;;;;21.81;36.65;93289.09;5027437;28;20247;-76
2022/05/16 09:08:58;;;;;;;8.25;7.60;;;;;;;21.67;36.04;93279.84;5028052;28;20245;-76
2022/05/16 09:11:36;;;;;;;8.38;7.88;;;;;;;22.07;37.00;93283.47;5027732;28;20252;-79
2022/05/16 09:14:28;;;;;;;8.38;7.88;;;;;;;22.27;35.93;93283.34;5026324;28;20202;-78
2022/05/16 09:17:00;;;;;;;8.25;7.85;;;;;;;22.07;36.63;93268.28;5027393;28;20239;-75
2022/05/16 09:19:50;;;;;;;8.23;7.72;;;;;;;22.23;37.02;93281.69;5010672;28;20199;-74
2022/05/16 09:22:34;;;;;;;7.40;7.10;;;;;;;22.08;35.61;93269.06;5027223;28;20243;-76
2022/05/16 09:25:17;;;;;;;8.75;8.25;;;;;;;22.54;33.49;93273.91;5027287;28;20192;-76
2022/05/16 09:30:32;;;;;;;7.35;7.00;;;;;;;22.24;33.30;93267.28;5026548;28;20264;-77
2022/05/16 09:33:09;;;;;;;8.23;7.63;;;;;;;22.27;32.32;93271.16;5027990;28;20205;-76
2022/05/16 09:35:38;;;;;;;7.75;7.35;;;;;;;22.42;32.35;93265.91;5027295;28;20234;-76
2022/05/16 09:38:05;;;;;;;7.35;7.05;;;;;;;22.60;30.92;93269.13;5026259;28;20200;-76
2022/05/16 09:40:40;;;;;;;8.57;8.07;;;;;;;22.17;30.98;93261.72;5026574;28;20240;-79
2022/05/16 09:43:19;;;;;;;8.07;7.57;;;;;;;22.48;31.82;93263.78;5042355;28;20228;-76
2022/05/16 09:45:52;;;;;;;7.13;6.72;;;;;;;22.66;32.13;93239.28;5027426;28;20268;-76
2022/05/16 09:48:21;;;;;;;7.80;7.40;;;;;;;22.87;30.64;93261.19;5027839;28;20243;-78
2022/05/16 09:50:59;;;;;;;7.40;7.00;;;;;;;22.74;29.70;93251.66;5026756;28;20260;-78
2022/05/16 09:53:43;;;;;;;8.07;7.57;;;;;;;23.01;28.63;93253.59;5027221;28;20188;-78
2022/05/16 09:56:33;;;;;;;7.32;6.90;;;;;;;22.77;28.97;93248.34;5026709;28;20227;-78
2022/05/16 09:59:04;;;;;;;8.10;7.57;;;;;;;22.98;29.86;93238.28;5027557;28;20216;-78
2022/05/16 10:01:44;;;;;;;7.85;7.45;;;;;;;22.97;28.32;93242.06;5026947;28;20225;-78
2022/05/16 10:04:15;;;;;;;8.48;7.90;;;;;;;22.92;30.00;93234.31;5026251;28;20189;-80
2022/05/16 10:06:54;;;;;;;8.40;7.80;;;;;;;22.77;30.23;93232.34;5025324;28;20217;-78
2022/05/16 10:09:48;;;;;;;7.47;7.07;;;;;;;22.81;30.51;93233.25;5030369;28;20254;-79
2022/05/16 10:12:17;;;;;;;8.52;8.02;;;;;;;22.46;30.51;93215.47;5012851;28;20229;-79
2022/05/16 10:14:44;;;;;;;7.90;7.32;;;;;;;22.62;31.32;93221.66;5029279;28;20192;-78
2022/05/16 10:17:24;;;;;;;8.02;7.63;;;;;;;22.67;32.11;93224.88;5030029;28;20235;-79
2022/05/16 10:19:55;;;;;;;7.80;7.40;;;;;;;22.95;32.12;93215.00;5029866;28;20196;-77
2022/05/16 10:22:22;;;;;;;8.32;7.93;;;;;;;22.94;31.11;93221.41;5030385;28;20234;-77
2022/05/16 10:24:53;;;;;;;7.38;6.97;;;;;;;22.86;30.98;93225.03;5030851;28;20189;-77
2022/05/16 10:27:25;;;;;;;9.20;8.48;;;;;;;23.11;32.69;93221.16;5029357;28;20252;-78
2022/05/16 10:29:54;;;;;;;8.50;8.00;;;;;;;22.89;33.69;93211.03;5027385;28;20189;-78
2022/05/16 10:35:16;;;;;;;7.97;7.57;;;;;;;23.09;33.94;93206.59;5030086;28;20257;-77
2022/05/16 10:37:46;;;;;;;8.23;7.53;;;;;;;23.26;32.32;93199.09;5030001;28;20247;-78
2022/05/16 10:40:23;;;;;;;8.18;7.72;;;;;;;22.87;34.15;93199.94;5028060;28;20263;-77
2022/05/16 10:43:08;;;;;;;8.70;8.20;;;;;;;22.85;33.48;93196.06;5029373;28;20209;-76
2022/05/16 10:45:36;;;;;;;8.80;8.30;;;;;;;22.93;32.47;93150.63;5028883;28;20836;-78
2022/05/16 10:48:14;;;;;;;8.18;7.78;;;;;;;22.98;33.29;93190.34;5030750;28;20221;-76
2022/05/16 10:51:12;;;;;;;7.68;7.22;;;;;;;23.37;33.71;93192.16;5029941;28;20237;-77
2022/05/16 10:54:00;;;;;;;8.50;8.00;;;;;;;23.21;32.23;93194.00;5024929;28;20223;-77
2022/05/16 10:56:31;;;;;;;7.78;7.40;;;;;;;22.84;32.87;93183.84;5029018;28;20220;-78
2022/05/16 10:59:39;;;;;;;8.57;8.15;;;;;;;22.91;34.41;93189.38;5029419;28;20202;-78
2022/05/16 11:02:43;;;;;;;8.02;7.63;;;;;;;22.99;33.23;93165.25;5029529;28;20217;-78
2022/05/16 11:05:39;;;;;;;9.63;8.93;;;;;;;23.06;34.86;93184.09;5024381;28;20223;-77
2022/05/16 11:08:08;;;;;;;8.38;7.78;;;;;;;23.21;33.87;93175.34;5043642;28;20189;-79
2022/05/16 11:10:57;;;;;;;8.55;7.93;;;;;;;23.37;33.72;93165.50;5029550;28;20236;-78
2022/05/16 11:13:38;;;;;;;8.50;7.90;;;;;;;23.34;34.23;93176.84;5029647;28;20190;-78
2022/05/16 11:16:12;;;;;;;7.70;7.30;;;;;;;23.56;32.57;93173.56;5026135;28;20245;-82
2022/05/16 11:18:52;;;;;;;7.68;7.28;;;;;;;23.64;32.76;93175.28;5028292;28;20912;-79
2022/05/16 11:21:45;;;;;;;7.00;6.70;;;;;;;23.52;35.21;93171.94;5012338;28;20233;-78
2022/05/16 11:25:01;;;;;;;8.35;7.78;;;;;;;23.50;33.36;93172.28;5029105;28;20199;-80
2022/05/16 11:27:51;;;;;;;8.35;7.95;;;;;;;23.59;32.12;93140.13;4962457;29;20255;-80
2022/05/16 11:30:35;;;;;;;8.27;7.75;;;;;;;23.50;32.07;93174.94;4957068;29;20234;-76
2022/05/16 11:33:27;;;;;;;8.32;7.80;;;;;;;23.69;33.64;93161.69;5012380;28;20195;-77
2022/05/16 11:35:58;;;;;;;8.95;8.18;;;;;;;23.77;32.19;93166.06;5027732;28;20245;-78
2022/05/16 11:38:44;;;;;;;8.18;7.70;;;;;;;23.66;31.71;93158.94;5028698;28;20737;-79
2022/05/16 11:41:28;;;;;;;7.80;7.30;;;;;;;23.75;31.74;93160.31;5027380;28;20264;-77
2022/05/16 11:44:18;;;;;;;8.00;7.55;;;;;;;23.63;31.10;93163.09;5029276;28;20952;-79
2022/05/16 11:47:08;;;;;;;7.63;7.22;;;;;;;23.86;31.81;93154.47;5029482;28;20236;-79
2022/05/16 11:49:56;;;;;;;8.48;8.02;;;;;;;23.57;30.48;93153.81;5028129;28;21135;-80
2022/05/16 11:52:36;;;;;;;7.05;6.75;;;;;;;23.64;29.97;93147.88;5028094;28;20259;-80
2022/05/16 12:00:52;;;;;;;7.75;7.32;;;;;;;23.93;29.90;93134.03;5027451;28;20257;-83
2022/05/16 12:03:20;;;;;;;7.97;7.57;;;;;;;24.11;29.23;93140.56;5029112;28;20197;-83
2022/05/16 12:05:52;;;;;;;7.90;7.40;;;;;;;23.93;30.19;93134.03;5026568;28;20228;-82
2022/05/16 12:08:36;;;;;;;8.48;7.97;;;;;;;24.05;30.11;93143.88;5027529;28;20207;-81
2022/05/16 12:11:01;;;;;;;7.93;7.53;;;;;;;23.91;29.86;93130.94;5026881;28;20227;-81
2022/05/16 12:13:34;;;;;;;7.78;7.38;;;;;;;23.94;29.35;93108.16;5061060;28;20227;-82
2022/05/16 12:16:15;;;;;;;7.13;6.82;;;;;;;23.97;28.86;93123.50;5027557;28;20866;-81